sensor_id;sensor_type;location;lat;lon;timestamp;temperature;humidity
60242;SHT30;46103;52.076;113.488;2023-03-01T00:00:48;-14.06;60.60
60242;SHT30;46103;52.076;113.488;2023-03-01T00:03:59;-13.98;59.27
60242;SHT30;46103;52.076;113.488;2023-03-01T00:07:09;-13.96;58.72
60242;SHT30;46103;52.076;113.488;2023-03-01T00:10:19;-13.96;58.66
60242;SHT30;46103;52.076;113.488;2023-03-01T00:13:28;-13.95;58.12
60242;SHT30;46103;52.076;113.488;2023-03-01T00:16:41;-13.81;59.34
60242;SHT30;46103;52.076;113.488;2023-03-01T00:19:51;-13.68;57.80
60242;SHT30;46103;52.076;113.488;2023-03-01T00:23:02;-13.65;57.47
60242;SHT30;46103;52.076;113.488;2023-03-01T00:26:14;-13.75;54.18
60242;SHT30;46103;52.076;113.488;2023-03-01T00:29:25;-13.93;51.53
60242;SHT30;46103;52.076;113.488;2023-03-01T00:32:35;-14.06;51.64
60242;SHT30;46103;52.076;113.488;2023-03-01T00:35:45;-14.10;51.87
60242;SHT30;46103;52.076;113.488;2023-03-01T00:38:55;-14.06;52.87
60242;SHT30;46103;52.076;113.488;2023-03-01T00:42:02;-13.89;54.07
60242;SHT30;46103;52.076;113.488;2023-03-01T00:45:09;-13.70;55.95
60242;SHT30;46103;52.076;113.488;2023-03-01T00:48:15;-13.57;54.85
60242;SHT30;46103;52.076;113.488;2023-03-01T00:51:23;-13.58;51.47
60242;SHT30;46103;52.076;113.488;2023-03-01T00:54:34;-13.48;54.36
60242;SHT30;46103;52.076;113.488;2023-03-01T00:57:42;-13.43;52.08
60242;SHT30;46103;52.076;113.488;2023-03-01T01:00:52;-13.30;54.20
60242;SHT30;46103;52.076;113.488;2023-03-01T01:07:08;-13.19;51.72
60242;SHT30;46103;52.076;113.488;2023-03-01T01:10:17;-13.15;51.59
60242;SHT30;46103;52.076;113.488;2023-03-01T01:13:26;-13.05;51.01
60242;SHT30;46103;52.076;113.488;2023-03-01T01:16:33;-13.05;50.97
60242;SHT30;46103;52.076;113.488;2023-03-01T01:19:38;-13.01;51.64
60242;SHT30;46103;52.076;113.488;2023-03-01T01:22:45;-12.80;51.04
60242;SHT30;46103;52.076;113.488;2023-03-01T01:26:07;-12.66;52.18
60242;SHT30;46103;52.076;113.488;2023-03-01T01:29:15;-12.46;51.59
60242;SHT30;46103;52.076;113.488;2023-03-01T01:32:24;-12.33;51.89
60242;SHT30;46103;52.076;113.488;2023-03-01T01:35:51;-12.08;51.78
60242;SHT30;46103;52.076;113.488;2023-03-01T01:39:01;-11.88;50.83
60242;SHT30;46103;52.076;113.488;2023-03-01T01:42:16;-11.61;50.48
60242;SHT30;46103;52.076;113.488;2023-03-01T01:49:02;-11.31;50.31
60242;SHT30;46103;52.076;113.488;2023-03-01T01:52:22;-11.31;49.54
60242;SHT30;46103;52.076;113.488;2023-03-01T01:55:27;-11.25;49.96
60242;SHT30;46103;52.076;113.488;2023-03-01T01:58:30;-11.14;49.64
60242;SHT30;46103;52.076;113.488;2023-03-01T02:01:34;-11.07;49.75
60242;SHT30;46103;52.076;113.488;2023-03-01T02:04:39;-11.18;50.16
60242;SHT30;46103;52.076;113.488;2023-03-01T02:07:44;-10.87;50.32
60242;SHT30;46103;52.076;113.488;2023-03-01T02:10:49;-10.50;49.58
60242;SHT30;46103;52.076;113.488;2023-03-01T02:13:54;-10.45;48.65
60242;SHT30;46103;52.076;113.488;2023-03-01T02:16:58;-10.12;48.73
60242;SHT30;46103;52.076;113.488;2023-03-01T02:23:27;-9.74;47.79
60242;SHT30;46103;52.076;113.488;2023-03-01T02:26:35;-9.77;47.39
60242;SHT30;46103;52.076;113.488;2023-03-01T02:29:45;-9.59;47.76
60242;SHT30;46103;52.076;113.488;2023-03-01T02:32:53;-9.18;47.06
60242;SHT30;46103;52.076;113.488;2023-03-01T02:36:04;-8.77;46.10
60242;SHT30;46103;52.076;113.488;2023-03-01T02:39:34;-8.38;45.29
60242;SHT30;46103;52.076;113.488;2023-03-01T02:42:55;-8.09;44.72
60242;SHT30;46103;52.076;113.488;2023-03-01T02:46:08;-7.77;43.87
60242;SHT30;46103;52.076;113.488;2023-03-01T02:49:28;-7.57;43.55
60242;SHT30;46103;52.076;113.488;2023-03-01T02:52:47;-7.26;43.16
60242;SHT30;46103;52.076;113.488;2023-03-01T02:55:57;-7.08;42.82
60242;SHT30;46103;52.076;113.488;2023-03-01T02:59:04;-6.88;42.53
60242;SHT30;46103;52.076;113.488;2023-03-01T03:02:22;-6.76;42.03
60242;SHT30;46103;52.076;113.488;2023-03-01T03:05:53;-6.73;42.39
60242;SHT30;46103;52.076;113.488;2023-03-01T03:08:59;-6.64;42.06
60242;SHT30;46103;52.076;113.488;2023-03-01T03:12:05;-6.66;42.08
60242;SHT30;46103;52.076;113.488;2023-03-01T03:15:13;-6.56;42.19
60242;SHT30;46103;52.076;113.488;2023-03-01T03:18:20;-6.22;41.41
60242;SHT30;46103;52.076;113.488;2023-03-01T03:21:27;-5.95;41.36
60242;SHT30;46103;52.076;113.488;2023-03-01T03:24:44;-5.48;40.41
60242;SHT30;46103;52.076;113.488;2023-03-01T03:27:51;-5.29;39.76
60242;SHT30;46103;52.076;113.488;2023-03-01T03:31:06;-5.12;39.22
60242;SHT30;46103;52.076;113.488;2023-03-01T03:34:11;-4.57;39.00
60242;SHT30;46103;52.076;113.488;2023-03-01T03:37:25;-4.11;37.68
60242;SHT30;46103;52.076;113.488;2023-03-01T03:41:07;-4.22;36.93
60242;SHT30;46103;52.076;113.488;2023-03-01T03:44:11;-4.25;37.42
60242;SHT30;46103;52.076;113.488;2023-03-01T03:47:17;-4.22;36.43
60242;SHT30;46103;52.076;113.488;2023-03-01T03:50:21;-4.19;37.37
60242;SHT30;46103;52.076;113.488;2023-03-01T03:53:27;-4.19;37.14
60242;SHT30;46103;52.076;113.488;2023-03-01T03:56:33;-4.07;36.98
60242;SHT30;46103;52.076;113.488;2023-03-01T03:59:37;-3.94;36.70
60242;SHT30;46103;52.076;113.488;2023-03-01T04:02:42;-3.77;35.95
60242;SHT30;46103;52.076;113.488;2023-03-01T04:05:46;-3.74;36.39
60242;SHT30;46103;52.076;113.488;2023-03-01T04:08:51;-3.46;36.28
60242;SHT30;46103;52.076;113.488;2023-03-01T04:12:02;-3.14;35.67
60242;SHT30;46103;52.076;113.488;2023-03-01T04:15:07;-3.22;34.95
60242;SHT30;46103;52.076;113.488;2023-03-01T04:18:22;-3.03;34.99
60242;SHT30;46103;52.076;113.488;2023-03-01T04:21:26;-2.80;34.47
60242;SHT30;46103;52.076;113.488;2023-03-01T04:24:33;-2.66;34.35
60242;SHT30;46103;52.076;113.488;2023-03-01T04:27:41;-2.63;34.48
60242;SHT30;46103;52.076;113.488;2023-03-01T04:30:45;-2.66;34.50
60242;SHT30;46103;52.076;113.488;2023-03-01T04:33:51;-2.49;34.71
60242;SHT30;46103;52.076;113.488;2023-03-01T04:36:55;-2.34;33.98
60242;SHT30;46103;52.076;113.488;2023-03-01T04:40:00;-2.52;34.88
60242;SHT30;46103;52.076;113.488;2023-03-01T04:43:04;-2.27;34.26
60242;SHT30;46103;52.076;113.488;2023-03-01T04:46:12;-2.11;34.03
60242;SHT30;46103;52.076;113.488;2023-03-01T04:49:16;-2.49;33.99
60242;SHT30;46103;52.076;113.488;2023-03-01T04:52:20;-2.48;34.50
60242;SHT30;46103;52.076;113.488;2023-03-01T04:55:28;-2.53;34.82
60242;SHT30;46103;52.076;113.488;2023-03-01T04:58:32;-2.57;35.07
60242;SHT30;46103;52.076;113.488;2023-03-01T05:01:36;-2.27;34.56
60242;SHT30;46103;52.076;113.488;2023-03-01T05:04:41;-2.45;34.50
60242;SHT30;46103;52.076;113.488;2023-03-01T05:07:44;-2.38;34.82
60242;SHT30;46103;52.076;113.488;2023-03-01T05:10:53;-2.04;34.35
60242;SHT30;46103;52.076;113.488;2023-03-01T05:13:57;-2.01;33.78
60242;SHT30;46103;52.076;113.488;2023-03-01T05:17:01;-2.24;34.18
60242;SHT30;46103;52.076;113.488;2023-03-01T05:20:08;-2.56;34.23
60242;SHT30;46103;52.076;113.488;2023-03-01T05:23:13;-2.46;34.95
60242;SHT30;46103;52.076;113.488;2023-03-01T05:26:19;-2.55;34.22
60242;SHT30;46103;52.076;113.488;2023-03-01T05:29:31;-2.83;34.86
60242;SHT30;46103;52.076;113.488;2023-03-01T05:32:38;-3.03;35.33
60242;SHT30;46103;52.076;113.488;2023-03-01T05:35:43;-3.08;35.49
60242;SHT30;46103;52.076;113.488;2023-03-01T05:38:48;-3.22;35.78
60242;SHT30;46103;52.076;113.488;2023-03-01T05:41:57;-3.52;36.41
60242;SHT30;46103;52.076;113.488;2023-03-01T05:45:03;-3.36;36.14
60242;SHT30;46103;52.076;113.488;2023-03-01T05:48:10;-3.32;36.28
60242;SHT30;46103;52.076;113.488;2023-03-01T05:51:13;-2.98;35.89
60242;SHT30;46103;52.076;113.488;2023-03-01T05:54:18;-2.74;35.31
60242;SHT30;46103;52.076;113.488;2023-03-01T05:57:22;-2.74;35.36
60242;SHT30;46103;52.076;113.488;2023-03-01T06:00:28;-3.32;35.92
60242;SHT30;46103;52.076;113.488;2023-03-01T06:03:33;-3.08;36.11
60242;SHT30;46103;52.076;113.488;2023-03-01T06:06:36;-2.65;35.33
60242;SHT30;46103;52.076;113.488;2023-03-01T06:09:40;-2.46;35.26
60242;SHT30;46103;52.076;113.488;2023-03-01T06:12:43;-2.74;35.63
60242;SHT30;46103;52.076;113.488;2023-03-01T06:15:47;-2.70;35.89
60242;SHT30;46103;52.076;113.488;2023-03-01T06:18:50;-2.72;35.60
60242;SHT30;46103;52.076;113.488;2023-03-01T06:21:54;-2.98;36.52
60242;SHT30;46103;52.076;113.488;2023-03-01T06:24:57;-3.03;36.81
60242;SHT30;46103;52.076;113.488;2023-03-01T06:28:00;-3.07;36.70
60242;SHT30;46103;52.076;113.488;2023-03-01T06:31:04;-3.01;37.30
60242;SHT30;46103;52.076;113.488;2023-03-01T06:34:11;-2.95;37.02
60242;SHT30;46103;52.076;113.488;2023-03-01T06:37:16;-3.08;37.25
60242;SHT30;46103;52.076;113.488;2023-03-01T06:40:24;-3.39;38.16
60242;SHT30;46103;52.076;113.488;2023-03-01T06:43:51;-3.22;38.50
60242;SHT30;46103;52.076;113.488;2023-03-01T06:47:26;-3.03;37.40
60242;SHT30;46103;52.076;113.488;2023-03-01T06:50:30;-3.30;37.60
60242;SHT30;46103;52.076;113.488;2023-03-01T06:53:34;-3.69;38.81
60242;SHT30;46103;52.076;113.488;2023-03-01T06:56:39;-3.70;39.52
60242;SHT30;46103;52.076;113.488;2023-03-01T06:59:46;-3.32;39.13
60242;SHT30;46103;52.076;113.488;2023-03-01T07:02:51;-3.35;38.75
60242;SHT30;46103;52.076;113.488;2023-03-01T07:05:55;-3.11;38.64
60242;SHT30;46103;52.076;113.488;2023-03-01T07:09:00;-2.94;38.40
60242;SHT30;46103;52.076;113.488;2023-03-01T07:12:06;-3.05;37.91
60242;SHT30;46103;52.076;113.488;2023-03-01T07:15:11;-2.87;38.04
60242;SHT30;46103;52.076;113.488;2023-03-01T07:18:17;-3.16;38.29
60242;SHT30;46103;52.076;113.488;2023-03-01T07:21:21;-3.19;38.26
60242;SHT30;46103;52.076;113.488;2023-03-01T07:24:27;-3.03;38.50
60242;SHT30;46103;52.076;113.488;2023-03-01T07:27:35;-2.87;37.73
60242;SHT30;46103;52.076;113.488;2023-03-01T07:30:41;-2.93;37.86
60242;SHT30;46103;52.076;113.488;2023-03-01T07:33:51;-2.59;37.37
60242;SHT30;46103;52.076;113.488;2023-03-01T07:36:57;-2.50;36.91
60242;SHT30;46103;52.076;113.488;2023-03-01T07:40:03;-2.42;36.97
60242;SHT30;46103;52.076;113.488;2023-03-01T07:43:08;-2.50;36.60
60242;SHT30;46103;52.076;113.488;2023-03-01T07:46:14;-2.53;37.08
60242;SHT30;46103;52.076;113.488;2023-03-01T07:49:19;-2.36;37.07
60242;SHT30;46103;52.076;113.488;2023-03-01T07:52:25;-2.09;36.43
60242;SHT30;46103;52.076;113.488;2023-03-01T07:55:31;-1.90;36.23
60242;SHT30;46103;52.076;113.488;2023-03-01T07:58:44;-1.95;36.19
60242;SHT30;46103;52.076;113.488;2023-03-01T08:01:52;-1.94;35.87
60242;SHT30;46103;52.076;113.488;2023-03-01T08:04:58;-2.08;36.60
60242;SHT30;46103;52.076;113.488;2023-03-01T08:08:04;-2.53;36.97
60242;SHT30;46103;52.076;113.488;2023-03-01T08:11:12;-2.65;38.03
60242;SHT30;46103;52.076;113.488;2023-03-01T08:14:17;-2.60;38.47
60242;SHT30;46103;52.076;113.488;2023-03-01T08:17:24;-2.56;38.69
60242;SHT30;46103;52.076;113.488;2023-03-01T08:20:30;-2.44;38.86
60242;SHT30;46103;52.076;113.488;2023-03-01T08:23:38;-2.56;38.67
60242;SHT30;46103;52.076;113.488;2023-03-01T08:26:44;-2.56;39.22
60242;SHT30;46103;52.076;113.488;2023-03-01T08:29:51;-2.31;39.24
60242;SHT30;46103;52.076;113.488;2023-03-01T08:32:58;-2.31;38.34
60242;SHT30;46103;52.076;113.488;2023-03-01T08:36:05;-2.44;39.01
60242;SHT30;46103;52.076;113.488;2023-03-01T08:39:13;-2.46;39.11
60242;SHT30;46103;52.076;113.488;2023-03-01T08:42:20;-2.65;39.57
60242;SHT30;46103;52.076;113.488;2023-03-01T08:45:26;-2.87;40.05
60242;SHT30;46103;52.076;113.488;2023-03-01T08:48:35;-2.73;40.20
60242;SHT30;46103;52.076;113.488;2023-03-01T08:51:43;-2.81;39.93
60242;SHT30;46103;52.076;113.488;2023-03-01T08:54:48;-2.79;40.43
60242;SHT30;46103;52.076;113.488;2023-03-01T08:57:52;-2.90;40.49
60242;SHT30;46103;52.076;113.488;2023-03-01T09:00:56;-2.70;40.46
60242;SHT30;46103;52.076;113.488;2023-03-01T09:04:00;-2.65;40.39
60242;SHT30;46103;52.076;113.488;2023-03-01T09:07:04;-2.59;40.57
60242;SHT30;46103;52.076;113.488;2023-03-01T09:10:10;-2.42;40.14
60242;SHT30;46103;52.076;113.488;2023-03-01T09:13:16;-2.44;40.10
60242;SHT30;46103;52.076;113.488;2023-03-01T09:16:23;-2.55;40.26
60242;SHT30;46103;52.076;113.488;2023-03-01T09:19:35;-2.74;40.72
60242;SHT30;46103;52.076;113.488;2023-03-01T09:22:41;-2.87;40.65
60242;SHT30;46103;52.076;113.488;2023-03-01T09:25:50;-2.97;40.97
60242;SHT30;46103;52.076;113.488;2023-03-01T09:28:58;-2.97;41.14
60242;SHT30;46103;52.076;113.488;2023-03-01T09:32:11;-3.03;40.96
60242;SHT30;46103;52.076;113.488;2023-03-01T09:35:22;-3.12;41.35
60242;SHT30;46103;52.076;113.488;2023-03-01T09:38:28;-3.19;41.66
60242;SHT30;46103;52.076;113.488;2023-03-01T09:44:47;-3.24;41.74
60242;SHT30;46103;52.076;113.488;2023-03-01T09:47:53;-3.25;42.01
60242;SHT30;46103;52.076;113.488;2023-03-01T09:51:07;-3.30;41.95
60242;SHT30;46103;52.076;113.488;2023-03-01T09:54:16;-3.31;41.95
60242;SHT30;46103;52.076;113.488;2023-03-01T10:00:41;-3.35;41.70
60242;SHT30;46103;52.076;113.488;2023-03-01T10:04:28;-3.39;41.90
60242;SHT30;46103;52.076;113.488;2023-03-01T10:10:47;-3.32;41.95
60242;SHT30;46103;52.076;113.488;2023-03-01T10:21:01;-3.32;42.09
60242;SHT30;46103;52.076;113.488;2023-03-01T10:24:12;-3.31;42.35
60242;SHT30;46103;52.076;113.488;2023-03-01T10:27:29;-3.34;42.39
60242;SHT30;46103;52.076;113.488;2023-03-01T10:30:41;-3.41;42.45
60242;SHT30;46103;52.076;113.488;2023-03-01T10:33:49;-3.43;42.43
60242;SHT30;46103;52.076;113.488;2023-03-01T10:40:20;-3.55;42.92
60242;SHT30;46103;52.076;113.488;2023-03-01T10:43:47;-3.56;43.09
60242;SHT30;46103;52.076;113.488;2023-03-01T10:47:00;-3.55;43.01
60242;SHT30;46103;52.076;113.488;2023-03-01T10:50:21;-3.58;43.14
60242;SHT30;46103;52.076;113.488;2023-03-01T10:56:59;-3.70;43.53
60242;SHT30;46103;52.076;113.488;2023-03-01T11:00:17;-3.66;43.46
60242;SHT30;46103;52.076;113.488;2023-03-01T11:03:34;-3.67;43.62
60242;SHT30;46103;52.076;113.488;2023-03-01T11:06:40;-3.63;43.51
60242;SHT30;46103;52.076;113.488;2023-03-01T11:09:44;-3.62;43.26
60242;SHT30;46103;52.076;113.488;2023-03-01T11:12:47;-3.56;43.24
60242;SHT30;46103;52.076;113.488;2023-03-01T11:16:02;-3.52;43.12
60242;SHT30;46103;52.076;113.488;2023-03-01T11:22:19;-3.48;43.38
60242;SHT30;46103;52.076;113.488;2023-03-01T11:25:26;-3.50;43.13
60242;SHT30;46103;52.076;113.488;2023-03-01T11:28:33;-3.45;42.87
60242;SHT30;46103;52.076;113.488;2023-03-01T11:31:39;-3.46;43.26
60242;SHT30;46103;52.076;113.488;2023-03-01T11:35:33;-3.42;43.09
60242;SHT30;46103;52.076;113.488;2023-03-01T11:38:40;-3.45;43.49
60242;SHT30;46103;52.076;113.488;2023-03-01T11:41:48;-3.43;43.22
60242;SHT30;46103;52.076;113.488;2023-03-01T11:44:59;-3.39;43.35
60242;SHT30;46103;52.076;113.488;2023-03-01T12:12:38;-3.36;43.69
60242;SHT30;46103;52.076;113.488;2023-03-01T12:29:31;-3.42;43.33
60242;SHT30;46103;52.076;113.488;2023-03-01T12:33:18;-3.39;42.80
60242;SHT30;46103;52.076;113.488;2023-03-01T12:36:46;-3.45;43.42
60242;SHT30;46103;52.076;113.488;2023-03-01T12:43:36;-3.39;42.75
60242;SHT30;46103;52.076;113.488;2023-03-01T12:47:41;-3.34;42.71
60242;SHT30;46103;52.076;113.488;2023-03-01T12:50:57;-3.21;42.65
60242;SHT30;46103;52.076;113.488;2023-03-01T12:54:31;-3.22;42.03
60242;SHT30;46103;52.076;113.488;2023-03-01T12:57:42;-3.22;42.71
60242;SHT30;46103;52.076;113.488;2023-03-01T13:08:14;-3.11;42.59
60242;SHT30;46103;52.076;113.488;2023-03-01T13:11:28;-3.21;42.79
60242;SHT30;46103;52.076;113.488;2023-03-01T13:17:44;-3.30;43.21
60242;SHT30;46103;52.076;113.488;2023-03-01T13:20:52;-3.42;43.44
60242;SHT30;46103;52.076;113.488;2023-03-01T13:23:55;-3.50;42.98
60242;SHT30;46103;52.076;113.488;2023-03-01T13:30:40;-3.62;43.17
60242;SHT30;46103;52.076;113.488;2023-03-01T13:33:52;-3.66;43.20
60242;SHT30;46103;52.076;113.488;2023-03-01T13:37:09;-3.70;43.35
60242;SHT30;46103;52.076;113.488;2023-03-01T13:43:28;-3.83;44.00
60242;SHT30;46103;52.076;113.488;2023-03-01T13:46:33;-3.87;44.18
60242;SHT30;46103;52.076;113.488;2023-03-01T13:49:57;-3.93;44.25
60242;SHT30;46103;52.076;113.488;2023-03-01T13:53:06;-3.95;44.41
60242;SHT30;46103;52.076;113.488;2023-03-01T13:56:15;-4.00;44.32
60242;SHT30;46103;52.076;113.488;2023-03-01T13:59:21;-3.97;44.19
60242;SHT30;46103;52.076;113.488;2023-03-01T14:02:25;-3.95;44.02
60242;SHT30;46103;52.076;113.488;2023-03-01T14:05:28;-3.97;44.18
60242;SHT30;46103;52.076;113.488;2023-03-01T14:08:35;-4.04;44.37
60242;SHT30;46103;52.076;113.488;2023-03-01T14:18:46;-4.24;45.10
60242;SHT30;46103;52.076;113.488;2023-03-01T14:25:31;-4.41;45.66
60242;SHT30;46103;52.076;113.488;2023-03-01T14:28:43;-4.44;45.77
60242;SHT30;46103;52.076;113.488;2023-03-01T14:32:01;-4.46;45.92
60242;SHT30;46103;52.076;113.488;2023-03-01T14:35:23;-4.57;46.19
60242;SHT30;46103;52.076;113.488;2023-03-01T14:38:45;-4.69;46.76
60242;SHT30;46103;52.076;113.488;2023-03-01T14:41:57;-4.73;46.90
60242;SHT30;46103;52.076;113.488;2023-03-01T14:45:19;-4.76;47.11
60242;SHT30;46103;52.076;113.488;2023-03-01T14:48:23;-4.74;46.65
60242;SHT30;46103;52.076;113.488;2023-03-01T14:51:28;-4.72;46.40
60242;SHT30;46103;52.076;113.488;2023-03-01T14:54:42;-4.67;46.22
60242;SHT30;46103;52.076;113.488;2023-03-01T14:57:50;-4.63;45.92
60242;SHT30;46103;52.076;113.488;2023-03-01T15:01:02;-4.55;45.84
60242;SHT30;46103;52.076;113.488;2023-03-01T15:04:06;-4.38;45.15
60242;SHT30;46103;52.076;113.488;2023-03-01T15:07:12;-4.21;44.63
60242;SHT30;46103;52.076;113.488;2023-03-01T15:10:28;-4.09;44.20
60242;SHT30;46103;52.076;113.488;2023-03-01T15:13:33;-3.94;43.56
60242;SHT30;46103;52.076;113.488;2023-03-01T15:16:39;-3.86;43.29
60242;SHT30;46103;52.076;113.488;2023-03-01T15:19:46;-3.81;43.18
60242;SHT30;46103;52.076;113.488;2023-03-01T15:22:51;-3.84;43.36
60242;SHT30;46103;52.076;113.488;2023-03-01T15:25:55;-3.88;43.42
60242;SHT30;46103;52.076;113.488;2023-03-01T15:29:00;-4.08;44.25
60242;SHT30;46103;52.076;113.488;2023-03-01T15:35:46;-4.33;45.05
60242;SHT30;46103;52.076;113.488;2023-03-01T15:38:57;-4.39;45.46
60242;SHT30;46103;52.076;113.488;2023-03-01T15:42:01;-4.39;45.49
60242;SHT30;46103;52.076;113.488;2023-03-01T15:45:22;-4.35;45.10
60242;SHT30;46103;52.076;113.488;2023-03-01T15:48:27;-4.32;45.15
60242;SHT30;46103;52.076;113.488;2023-03-01T15:51:36;-4.33;45.17
60242;SHT30;46103;52.076;113.488;2023-03-01T15:54:40;-4.36;45.33
60242;SHT30;46103;52.076;113.488;2023-03-01T15:57:44;-4.33;45.24
60242;SHT30;46103;52.076;113.488;2023-03-01T16:00:48;-4.35;45.37
60242;SHT30;46103;52.076;113.488;2023-03-01T16:04:03;-4.25;45.17
60242;SHT30;46103;52.076;113.488;2023-03-01T16:07:09;-4.15;44.95
60242;SHT30;46103;52.076;113.488;2023-03-01T16:10:13;-4.02;44.62
60242;SHT30;46103;52.076;113.488;2023-03-01T16:13:17;-3.94;44.29
60242;SHT30;46103;52.076;113.488;2023-03-01T16:16:21;-3.91;44.29
60242;SHT30;46103;52.076;113.488;2023-03-01T16:19:25;-3.86;44.19
60242;SHT30;46103;52.076;113.488;2023-03-01T16:22:28;-3.77;44.18
60242;SHT30;46103;52.076;113.488;2023-03-01T16:25:34;-3.74;44.19
60242;SHT30;46103;52.076;113.488;2023-03-01T16:28:40;-3.79;44.43
60242;SHT30;46103;52.076;113.488;2023-03-01T16:31:44;-3.84;44.96
60242;SHT30;46103;52.076;113.488;2023-03-01T16:34:48;-3.87;45.37
60242;SHT30;46103;52.076;113.488;2023-03-01T16:37:52;-3.94;45.73
60242;SHT30;46103;52.076;113.488;2023-03-01T16:40:56;-4.05;46.14
60242;SHT30;46103;52.076;113.488;2023-03-01T16:44:00;-4.18;46.70
60242;SHT30;46103;52.076;113.488;2023-03-01T16:47:04;-4.24;46.90
60242;SHT30;46103;52.076;113.488;2023-03-01T16:50:10;-4.26;46.73
60242;SHT30;46103;52.076;113.488;2023-03-01T16:53:14;-4.35;47.04
60242;SHT30;46103;52.076;113.488;2023-03-01T16:56:19;-4.41;47.13
60242;SHT30;46103;52.076;113.488;2023-03-01T16:59:22;-4.46;47.49
60242;SHT30;46103;52.076;113.488;2023-03-01T17:02:26;-4.52;47.71
60242;SHT30;46103;52.076;113.488;2023-03-01T17:05:30;-4.53;47.92
60242;SHT30;46103;52.076;113.488;2023-03-01T17:08:35;-4.53;47.92
60242;SHT30;46103;52.076;113.488;2023-03-01T17:11:40;-4.46;47.59
60242;SHT30;46103;52.076;113.488;2023-03-01T17:14:43;-4.42;47.53
60242;SHT30;46103;52.076;113.488;2023-03-01T17:17:48;-4.42;47.61
60242;SHT30;46103;52.076;113.488;2023-03-01T17:20:54;-4.41;47.65
60242;SHT30;46103;52.076;113.488;2023-03-01T17:23:58;-4.50;48.04
60242;SHT30;46103;52.076;113.488;2023-03-01T17:27:05;-4.49;48.23
60242;SHT30;46103;52.076;113.488;2023-03-01T17:30:11;-4.49;48.47
60242;SHT30;46103;52.076;113.488;2023-03-01T17:33:15;-4.49;48.62
60242;SHT30;46103;52.076;113.488;2023-03-01T17:36:20;-4.50;48.77
60242;SHT30;46103;52.076;113.488;2023-03-01T17:39:24;-4.46;48.85
60242;SHT30;46103;52.076;113.488;2023-03-01T17:42:32;-4.44;49.02
60242;SHT30;46103;52.076;113.488;2023-03-01T17:45:37;-4.46;49.18
60242;SHT30;46103;52.076;113.488;2023-03-01T17:48:41;-4.48;49.20
60242;SHT30;46103;52.076;113.488;2023-03-01T17:51:46;-4.44;49.11
60242;SHT30;46103;52.076;113.488;2023-03-01T17:54:50;-4.42;49.25
60242;SHT30;46103;52.076;113.488;2023-03-01T17:57:55;-4.42;49.40
60242;SHT30;46103;52.076;113.488;2023-03-01T18:01:16;-4.33;49.53
60242;SHT30;46103;52.076;113.488;2023-03-01T18:04:22;-4.32;49.48
60242;SHT30;46103;52.076;113.488;2023-03-01T18:07:27;-4.25;49.39
60242;SHT30;46103;52.076;113.488;2023-03-01T18:10:32;-4.24;49.34
60242;SHT30;46103;52.076;113.488;2023-03-01T18:13:39;-4.15;49.27
60242;SHT30;46103;52.076;113.488;2023-03-01T18:16:43;-4.17;49.54
60242;SHT30;46103;52.076;113.488;2023-03-01T18:19:48;-4.17;49.77
60242;SHT30;46103;52.076;113.488;2023-03-01T18:22:52;-4.17;49.98
60242;SHT30;46103;52.076;113.488;2023-03-01T18:26:04;-4.17;49.95
60242;SHT30;46103;52.076;113.488;2023-03-01T18:29:08;-4.14;50.00
60242;SHT30;46103;52.076;113.488;2023-03-01T18:32:13;-4.17;50.29
60242;SHT30;46103;52.076;113.488;2023-03-01T18:35:17;-4.17;50.49
60242;SHT30;46103;52.076;113.488;2023-03-01T18:38:20;-4.22;50.81
60242;SHT30;46103;52.076;113.488;2023-03-01T18:41:26;-4.22;51.12
60242;SHT30;46103;52.076;113.488;2023-03-01T18:44:33;-4.26;51.39
60242;SHT30;46103;52.076;113.488;2023-03-01T18:47:37;-4.28;51.72
60242;SHT30;46103;52.076;113.488;2023-03-01T18:50:41;-4.26;52.01
60242;SHT30;46103;52.076;113.488;2023-03-01T18:53:46;-4.26;52.13
60242;SHT30;46103;52.076;113.488;2023-03-01T18:56:51;-4.29;52.31
60242;SHT30;46103;52.076;113.488;2023-03-01T18:59:55;-4.24;52.28
60242;SHT30;46103;52.076;113.488;2023-03-01T19:02:59;-4.19;52.87
60242;SHT30;46103;52.076;113.488;2023-03-01T19:06:05;-4.21;52.63
60242;SHT30;46103;52.076;113.488;2023-03-01T19:09:10;-4.19;52.87
60242;SHT30;46103;52.076;113.488;2023-03-01T19:12:17;-4.14;53.23
60242;SHT30;46103;52.076;113.488;2023-03-01T19:15:21;-4.11;53.28
60242;SHT30;46103;52.076;113.488;2023-03-01T19:18:25;-4.07;53.31
60242;SHT30;46103;52.076;113.488;2023-03-01T19:21:31;-4.08;53.20
60242;SHT30;46103;52.076;113.488;2023-03-01T19:24:38;-4.07;53.15
60242;SHT30;46103;52.076;113.488;2023-03-01T19:27:45;-4.07;53.18
60242;SHT30;46103;52.076;113.488;2023-03-01T19:30:59;-4.08;53.33
60242;SHT30;46103;52.076;113.488;2023-03-01T19:34:06;-4.14;53.47
60242;SHT30;46103;52.076;113.488;2023-03-01T19:37:14;-4.17;53.86
60242;SHT30;46103;52.076;113.488;2023-03-01T19:40:21;-4.18;54.12
60242;SHT30;46103;52.076;113.488;2023-03-01T19:43:27;-4.18;54.49
60242;SHT30;46103;52.076;113.488;2023-03-01T19:46:33;-4.22;54.58
60242;SHT30;46103;52.076;113.488;2023-03-01T19:49:38;-4.24;54.82
60242;SHT30;46103;52.076;113.488;2023-03-01T19:52:43;-4.25;55.15
60242;SHT30;46103;52.076;113.488;2023-03-01T19:55:49;-4.22;55.18
60242;SHT30;46103;52.076;113.488;2023-03-01T19:58:56;-4.21;55.56
60242;SHT30;46103;52.076;113.488;2023-03-01T20:02:05;-4.07;55.63
60242;SHT30;46103;52.076;113.488;2023-03-01T20:05:12;-4.01;55.31
60242;SHT30;46103;52.076;113.488;2023-03-01T20:08:18;-3.95;55.15
60242;SHT30;46103;52.076;113.488;2023-03-01T20:11:24;-3.94;54.98
60242;SHT30;46103;52.076;113.488;2023-03-01T20:14:29;-3.90;54.71
60242;SHT30;46103;52.076;113.488;2023-03-01T20:17:35;-3.87;54.17
60242;SHT30;46103;52.076;113.488;2023-03-01T20:20:41;-3.83;53.90
60242;SHT30;46103;52.076;113.488;2023-03-01T20:23:49;-3.84;53.87
60242;SHT30;46103;52.076;113.488;2023-03-01T20:26:54;-3.91;53.85
60242;SHT30;46103;52.076;113.488;2023-03-01T20:29:58;-3.97;53.98
60242;SHT30;46103;52.076;113.488;2023-03-01T20:33:05;-4.00;54.09
60242;SHT30;46103;52.076;113.488;2023-03-01T20:36:12;-4.08;54.37
60242;SHT30;46103;52.076;113.488;2023-03-01T20:39:17;-4.18;54.56
60242;SHT30;46103;52.076;113.488;2023-03-01T20:42:21;-4.25;54.98
60242;SHT30;46103;52.076;113.488;2023-03-01T20:45:26;-4.33;55.22
60242;SHT30;46103;52.076;113.488;2023-03-01T20:48:32;-4.38;55.54
60242;SHT30;46103;52.076;113.488;2023-03-01T20:51:40;-4.42;55.81
60242;SHT30;46103;52.076;113.488;2023-03-01T20:54:45;-4.49;55.96
60242;SHT30;46103;52.076;113.488;2023-03-01T20:57:50;-4.55;56.42
60242;SHT30;46103;52.076;113.488;2023-03-01T21:00:54;-4.56;56.48